Time;durP1;ratioP1;P1;durP2;ratioP2;P2;SDS_P1;SDS_P2;PMS_P1;PMS_P2;Temp;Humidity;BMP_temperature;BMP_pressure;BME280_temperature;BME280_humidity;BME280_pressure;Samples;Min_cycle;Max_cycle;Signal;HPM_P1;HPM_P2
2022/08/10 00:01:11;0.00;0.00;0.62;0.00;0.00;0.62;;;;;22.60;1.00;;;;;;2266353;61;1085;-83
2022/08/10 00:03:38;0.00;0.00;0.62;0.00;0.00;0.62;;;;;22.70;1.00;;;;;;2266337;61;1130;-83
2022/08/10 00:06:05;43106.00;0.14;75.26;0.00;0.00;0.62;;;;;22.70;1.00;;;;;;2265936;61;1288;-83
2022/08/10 00:08:32;0.00;0.00;0.62;0.00;0.00;0.62;;;;;22.40;1.00;;;;;;2265961;61;1103;-83
2022/08/10 00:11:00;90402.00;0.30;157.00;22667.00;0.08;39.89;;;;;22.30;1.00;;;;;;2266110;61;1629;-83
2022/08/10 00:13:27;197548.00;0.66;341.70;0.00;0.00;0.62;;;;;22.30;1.00;;;;;;2266324;61;1120;-83
2022/08/10 00:15:54;90021.00;0.30;156.34;0.00;0.00;0.62;;;;;22.50;1.00;;;;;;2266197;61;1552;-83
2022/08/10 00:18:21;0.00;0.00;0.62;0.00;0.00;0.62;;;;;22.60;1.00;;;;;;2266866;61;1991;-84
2022/08/10 00:20:48;105850.00;0.35;183.67;0.00;0.00;0.62;;;;;22.60;1.00;;;;;;2265943;61;1213;-82
2022/08/10 00:23:16;0.00;0.00;0.62;0.00;0.00;0.62;;;;;22.40;1.00;;;;;;2266020;61;1680;-81
2022/08/10 00:25:43;0.00;0.00;0.62;0.00;0.00;0.62;;;;;22.10;1.00;;;;;;2266652;61;1342;-84
2022/08/10 00:28:11;358074.00;1.19;617.74;157941.00;0.53;273.49;;;;;22.20;1.00;;;;;;2267276;61;1125;-83
2022/08/10 00:30:38;25689.00;0.09;45.12;0.00;0.00;0.62;;;;;22.10;1.00;;;;;;2267149;61;1099;-83
2022/08/10 00:33:05;0.00;0.00;0.62;0.00;0.00;0.62;;;;;22.20;1.00;;;;;;2266550;61;1216;-83
2022/08/10 00:35:32;34272.00;0.11;59.98;0.00;0.00;0.62;;;;;22.00;1.00;;;;;;2266729;61;1360;-83
2022/08/10 00:37:59;0.00;0.00;0.62;0.00;0.00;0.62;;;;;22.10;1.00;;;;;;2266939;61;2010;-83
2022/08/10 00:40:26;0.00;0.00;0.62;0.00;0.00;0.62;;;;;22.20;1.00;;;;;;2266354;61;1167;-84
2022/08/10 00:42:52;0.00;0.00;0.62;0.00;0.00;0.62;;;;;22.00;1.00;;;;;;2265838;61;1143;-83
2022/08/10 00:45:21;255958.00;0.85;442.20;19603.00;0.07;34.58;;;;;22.00;1.00;;;;;;2266090;61;2002;-82
2022/08/10 00:47:48;0.00;0.00;0.62;0.00;0.00;0.62;;;;;22.00;1.00;;;;;;2266310;61;1137;-83
2022/08/10 00:50:16;13310.00;0.04;23.68;0.00;0.00;0.62;;;;;22.00;1.00;;;;;;2265943;61;1109;-83
2022/08/10 00:52:44;0.00;0.00;0.62;0.00;0.00;0.62;;;;;22.10;1.00;;;;;;2266330;61;1137;-84
2022/08/10 00:55:11;17770.00;0.06;31.41;0.00;0.00;0.62;;;;;22.20;1.00;;;;;;2266149;61;1266;-83
2022/08/10 00:57:39;35390.00;0.12;61.91;0.00;0.00;0.62;;;;;22.20;1.00;;;;;;2266122;61;1103;-83
2022/08/10 01:00:08;0.00;0.00;0.62;0.00;0.00;0.62;;;;;22.10;1.00;;;;;;2266174;61;1928;-83
2022/08/10 01:02:37;21677.00;0.07;38.17;0.00;0.00;0.62;;;;;22.20;1.00;;;;;;2265911;61;2228;-83
2022/08/10 01:05:08;175470.00;0.58;303.69;0.00;0.00;0.62;;;;;22.30;1.00;;;;;;2266169;61;1344;-84
2022/08/10 01:07:56;14143.00;0.05;25.13;0.00;0.00;0.62;;;;;22.40;1.00;;;;;;2266588;61;1084;-84
2022/08/10 01:10:35;0.00;0.00;0.62;0.00;0.00;0.62;;;;;22.30;1.00;;;;;;2266646;61;1134;-83
2022/08/10 01:13:09;0.00;0.00;0.62;0.00;0.00;0.62;;;;;22.40;1.00;;;;;;2266855;61;1124;-83
2022/08/10 01:15:46;84610.00;0.28;147.00;0.00;0.00;0.62;;;;;22.50;1.00;;;;;;2268225;61;1439;-88
2022/08/10 01:18:22;12427.00;0.04;22.15;0.00;0.00;0.62;;;;;22.50;1.00;;;;;;2268822;61;1912;-87
2022/08/10 01:21:10;28978.00;0.10;50.81;0.00;0.00;0.62;;;;;22.50;1.00;;;;;;2268893;61;1082;-87
2022/08/10 01:23:58;810.00;0.00;2.02;0.00;0.00;0.62;;;;;22.30;1.00;;;;;;2268837;61;2498;-86
2022/08/10 01:26:40;33219.00;0.11;58.15;0.00;0.00;0.62;;;;;22.30;1.00;;;;;;2268901;61;1123;-88
2022/08/10 01:29:17;13625.00;0.05;24.23;0.00;0.00;0.62;;;;;22.20;1.00;;;;;;2268932;61;1063;-85
2022/08/10 01:31:53;0.00;0.00;0.62;0.00;0.00;0.62;;;;;22.00;1.00;;;;;;2268936;61;1056;-86
2022/08/10 01:34:24;2443.00;0.01;4.85;0.00;0.00;0.62;;;;;21.70;1.00;;;;;;2268138;61;1424;-82
2022/08/10 01:36:59;0.00;0.00;0.62;0.00;0.00;0.62;;;;;21.70;1.00;;;;;;2266053;61;1013;-82
2022/08/10 01:39:34;0.00;0.00;0.62;0.00;0.00;0.62;;;;;21.80;1.00;;;;;;2266685;61;1924;-82
2022/08/10 01:42:03;93738.00;0.31;162.76;26791.00;0.09;47.03;;;;;21.90;1.00;;;;;;2266394;61;1179;-81
2022/08/10 01:44:35;0.00;0.00;0.62;0.00;0.00;0.62;;;;;22.00;1.00;;;;;;2266193;61;1367;-83
2022/08/10 01:50:00;0.00;0.00;0.62;0.00;0.00;0.62;;;;;22.00;1.00;;;;;;2266842;61;669;-83
2022/08/10 01:52:30;0.00;0.00;0.62;0.00;0.00;0.62;;;;;22.00;1.00;;;;;;2265654;61;1145;-81
2022/08/10 01:54:58;51869.00;0.17;90.42;0.00;0.00;0.62;;;;;21.70;1.00;;;;;;2265447;61;1463;-82
2022/08/10 01:57:29;64848.00;0.22;112.86;0.00;0.00;0.62;;;;;21.60;1.00;;;;;;2266550;61;1635;-82
2022/08/10 01:59:59;0.00;0.00;0.62;0.00;0.00;0.62;;;;;21.60;1.00;;;;;;2266541;61;1985;-83
2022/08/10 02:02:31;0.00;0.00;0.62;0.00;0.00;0.62;;;;;21.80;1.00;;;;;;2266340;61;1092;-83
2022/08/10 02:05:02;0.00;0.00;0.62;0.00;0.00;0.62;;;;;21.80;1.00;;;;;;2266292;61;1463;-84
2022/08/10 02:07:31;0.00;0.00;0.62;0.00;0.00;0.62;;;;;21.90;1.00;;;;;;2266531;61;1068;-83
2022/08/10 02:10:04;24063.00;0.08;42.31;0.00;0.00;0.62;;;;;21.90;1.00;;;;;;2268455;61;1151;-86
2022/08/10 02:12:35;14221.00;0.05;25.26;0.00;0.00;0.62;;;;;21.80;1.00;;;;;;2268759;61;1013;-87
2022/08/10 02:15:07;12518.00;0.04;22.31;0.00;0.00;0.62;;;;;21.90;1.00;;;;;;2266485;61;1359;-83
2022/08/10 02:17:38;611796.00;2.04;1054.59;201109.00;0.67;347.83;;;;;21.80;1.00;;;;;;2266493;61;1093;-83
2022/08/10 02:20:10;0.00;0.00;0.62;0.00;0.00;0.62;;;;;21.70;1.00;;;;;;2266330;61;1990;-83
2022/08/10 02:22:38;0.00;0.00;0.62;0.00;0.00;0.62;;;;;21.60;1.00;;;;;;2265578;61;1168;-82
2022/08/10 02:25:08;35207.00;0.12;61.59;0.00;0.00;0.62;;;;;21.60;1.00;;;;;;2265648;61;1231;-83
2022/08/10 02:27:36;0.00;0.00;0.62;0.00;0.00;0.62;;;;;21.30;1.00;;;;;;2265736;61;1222;-82
2022/08/10 02:30:07;32362.00;0.11;56.67;0.00;0.00;0.62;;;;;21.00;1.00;;;;;;2265653;61;1143;-82
2022/08/10 02:32:37;0.00;0.00;0.62;0.00;0.00;0.62;;;;;20.90;1.00;;;;;;2265413;61;1108;-82
2022/08/10 02:35:08;0.00;0.00;0.62;0.00;0.00;0.62;;;;;20.70;1.00;;;;;;2265950;61;1440;-81
2022/08/10 02:37:39;296.00;0.00;1.13;0.00;0.00;0.62;;;;;20.70;1.00;;;;;;2265140;61;1112;-82
2022/08/10 02:40:07;0.00;0.00;0.62;0.00;0.00;0.62;;;;;20.50;1.00;;;;;;2265133;61;1928;-82
2022/08/10 02:42:41;0.00;0.00;0.62;0.00;0.00;0.62;;;;;20.40;1.00;;;;;;2265645;61;1125;-82
2022/08/10 02:45:16;70069.00;0.23;121.88;0.00;0.00;0.62;;;;;20.40;1.00;;;;;;2266388;61;1470;-82
2022/08/10 02:47:52;0.00;0.00;0.62;0.00;0.00;0.62;;;;;20.30;1.00;;;;;;2268693;61;1141;-85
2022/08/10 02:50:25;0.00;0.00;0.62;0.00;0.00;0.62;;;;;20.30;1.00;;;;;;2265530;61;1224;-81
2022/08/10 02:52:59;0.00;0.00;0.62;0.00;0.00;0.62;;;;;20.30;1.00;;;;;;2265049;61;1699;-81
2022/08/10 02:55:33;0.00;0.00;0.62;0.00;0.00;0.62;;;;;20.40;1.00;;;;;;2264860;61;1471;-81
2022/08/10 02:58:09;0.00;0.00;0.62;0.00;0.00;0.62;;;;;20.10;1.00;;;;;;2264936;61;1173;-82
2022/08/10 03:00:42;65050.00;0.22;113.21;0.00;0.00;0.62;;;;;20.00;1.00;;;;;;2264870;61;2011;-81
2022/08/10 03:03:17;0.00;0.00;0.62;0.00;0.00;0.62;;;;;20.20;1.00;;;;;;2264743;61;1148;-81
2022/08/10 03:05:47;0.00;0.00;0.62;0.00;0.00;0.62;;;;;20.20;1.00;;;;;;2265633;61;1453;-82
2022/08/10 03:08:21;0.00;0.00;0.62;0.00;0.00;0.62;;;;;20.50;1.00;;;;;;2264871;61;1124;-82
2022/08/10 03:10:50;30585.00;0.10;53.60;0.00;0.00;0.62;;;;;20.50;1.00;;;;;;2264794;61;1111;-81
2022/08/10 03:13:20;82492.00;0.27;143.34;0.00;0.00;0.62;;;;;20.30;1.00;;;;;;2264984;61;1105;-82
2022/08/10 03:15:50;62879.00;0.21;109.45;0.00;0.00;0.62;;;;;20.20;1.00;;;;;;2264575;61;1367;-82
2022/08/10 03:18:19;157604.00;0.53;272.91;90607.00;0.30;157.36;;;;;20.60;1.00;;;;;;2264736;61;1184;-81
2022/08/10 03:20:48;0.00;0.00;0.62;0.00;0.00;0.62;;;;;20.50;1.00;;;;;;2264885;61;2035;-81
2022/08/10 03:23:18;0.00;0.00;0.62;0.00;0.00;0.62;;;;;20.50;1.00;;;;;;2264992;61;1104;-81
2022/08/10 03:25:49;0.00;0.00;0.62;0.00;0.00;0.62;;;;;20.30;1.00;;;;;;2264839;61;1348;-82
2022/08/10 03:28:17;0.00;0.00;0.62;0.00;0.00;0.62;;;;;20.40;1.00;;;;;;2265061;61;1156;-82
2022/08/10 03:30:45;0.00;0.00;0.62;0.00;0.00;0.62;;;;;20.60;1.00;;;;;;2264658;61;1181;-80
2022/08/10 03:33:13;0.00;0.00;0.62;0.00;0.00;0.62;;;;;20.50;1.00;;;;;;2265006;61;1113;-81
2022/08/10 03:35:42;0.00;0.00;0.62;0.00;0.00;0.62;;;;;20.30;1.00;;;;;;2264982;61;1361;-83
2022/08/10 03:38:09;82194.00;0.27;142.83;0.00;0.00;0.62;;;;;20.60;1.00;;;;;;2264696;61;1659;-81
2022/08/10 03:40:38;41644.00;0.14;72.73;0.00;0.00;0.62;;;;;20.80;1.00;;;;;;2264808;61;2013;-82
2022/08/10 03:43:08;38340.00;0.13;67.02;0.00;0.00;0.62;;;;;20.90;1.00;;;;;;2265790;61;1136;-81
2022/08/10 03:45:36;2147.00;0.01;4.34;0.00;0.00;0.62;;;;;20.90;1.00;;;;;;2266291;61;1429;-81
2022/08/10 03:48:06;0.00;0.00;0.62;0.00;0.00;0.62;;;;;20.50;1.00;;;;;;2266908;61;1143;-80
2022/08/10 03:50:36;0.00;0.00;0.62;0.00;0.00;0.62;;;;;20.20;1.00;;;;;;2266593;61;1711;-80
2022/08/10 03:53:04;0.00;0.00;0.62;0.00;0.00;0.62;;;;;20.30;1.00;;;;;;2266631;61;1211;-81
2022/08/10 03:55:32;0.00;0.00;0.62;0.00;0.00;0.62;;;;;20.50;1.00;;;;;;2265639;61;1884;-81
2022/08/10 03:57:59;0.00;0.00;0.62;0.00;0.00;0.62;;;;;20.60;1.00;;;;;;2264866;61;2496;-80
2022/08/10 04:00:27;0.00;0.00;0.62;0.00;0.00;0.62;;;;;20.80;1.00;;;;;;2265004;61;2002;-81
2022/08/10 04:02:57;241530.00;0.81;417.38;27780.00;0.09;48.74;;;;;20.50;1.00;;;;;;2267937;61;1092;-86
2022/08/10 04:05:24;0.00;0.00;0.62;0.00;0.00;0.62;;;;;20.60;1.00;;;;;;2268273;61;1826;-84
2022/08/10 04:07:51;239801.00;0.80;414.41;0.00;0.00;0.62;;;;;20.20;1.00;;;;;;2266477;61;1098;-83
2022/08/10 04:10:19;452253.00;1.51;779.66;5624.00;0.02;10.37;;;;;20.30;1.00;;;;;;2264883;61;1473;-83
2022/08/10 04:12:46;386847.00;1.29;667.19;19387.00;0.06;34.21;;;;;20.10;1.00;;;;;;2264786;61;1188;-81
2022/08/10 04:15:13;619277.00;2.06;1067.52;61727.00;0.21;107.46;;;;;19.90;1.00;;;;;;2264637;61;1371;-82
2022/08/10 04:17:40;663051.00;2.21;1143.22;51401.00;0.17;89.61;;;;;19.90;1.00;;;;;;2264609;61;1178;-81
2022/08/10 04:20:11;639563.00;2.13;1102.58;34419.00;0.11;60.23;;;;;19.70;1.00;;;;;;2264603;61;1939;-82
2022/08/10 04:22:39;694175.00;2.31;1197.14;12328.00;0.04;21.98;;;;;19.60;1.00;;;;;;2264613;61;1159;-82
2022/08/10 04:25:10;584365.00;1.95;1007.23;65569.00;0.22;114.10;;;;;19.50;1.00;;;;;;2264323;61;1290;-82
2022/08/10 04:27:38;701399.00;2.34;1209.66;86034.00;0.29;149.46;;;;;19.50;1.00;;;;;;2264808;61;1164;-81
2022/08/10 04:30:07;423072.00;1.41;729.47;0.00;0.00;0.62;;;;;19.60;1.00;;;;;;2265924;61;1493;-81
2022/08/10 04:32:35;719361.00;2.40;1240.83;54972.00;0.18;95.78;;;;;19.80;1.00;;;;;;2265147;61;1649;-82
2022/08/10 04:35:04;753248.00;2.51;1299.71;25989.00;0.09;45.64;;;;;19.70;1.00;;;;;;2265330;61;1345;-82
2022/08/10 04:37:33;607410.00;2.02;1047.02;21022.00;0.07;37.04;;;;;19.60;1.00;;;;;;2265540;61;1455;-82
2022/08/10 04:40:01;698191.00;2.33;1204.10;39473.00;0.13;68.98;;;;;19.50;1.00;;;;;;2268326;61;2164;-86
2022/08/10 04:42:28;813021.00;2.71;1403.84;46417.00;0.15;80.99;;;;;19.60;1.00;;;;;;2268307;61;1071;-83
2022/08/10 04:44:57;832706.00;2.78;1438.22;106552.00;0.36;184.88;;;;;19.80;1.00;;;;;;2264484;61;1367;-82
2022/08/10 04:47:24;781019.00;2.60;1348.04;120211.00;0.40;208.45;;;;;19.70;1.00;;;;;;2264888;61;1137;-82
2022/08/10 04:49:51;454212.00;1.51;783.03;96751.00;0.32;167.96;;;;;19.50;1.00;;;;;;2264732;61;1174;-82
2022/08/10 04:52:18;487340.00;1.62;840.03;94352.00;0.31;163.82;;;;;19.70;1.00;;;;;;2263698;61;1180;-81
2022/08/10 04:54:45;567301.00;1.89;977.79;78285.00;0.26;136.07;;;;;19.60;1.00;;;;;;2264237;61;1333;-83
2022/08/10 04:57:12;502853.00;1.68;866.74;71290.00;0.24;123.99;;;;;19.70;1.00;;;;;;2268282;61;1093;-83
2022/08/10 04:59:39;430499.00;1.43;742.24;71786.00;0.24;124.85;;;;;19.50;1.00;;;;;;2268086;61;1935;-84
2022/08/10 05:02:07;169676.00;0.57;293.71;72475.00;0.24;126.04;;;;;19.80;1.00;;;;;;2266053;61;2336;-81
2022/08/10 05:04:34;300749.00;1.00;519.21;69097.00;0.23;120.20;;;;;20.10;1.00;;;;;;2263456;61;1336;-82
2022/08/10 05:07:01;361767.00;1.21;624.09;88488.00;0.29;153.70;;;;;20.30;1.00;;;;;;2263282;61;1169;-83
2022/08/10 05:09:27;461633.00;1.54;795.79;92588.00;0.31;160.78;;;;;20.60;1.00;;;;;;2264126;61;1155;-81
2022/08/10 05:11:54;426280.00;1.42;734.99;90930.00;0.30;157.91;;;;;20.60;1.00;;;;;;2264339;61;1111;-83
2022/08/10 05:14:21;599031.00;2.00;1032.55;76871.00;0.26;133.63;;;;;20.50;1.00;;;;;;2264847;61;1275;-82
2022/08/10 05:16:48;754548.00;2.52;1301.97;119141.00;0.40;206.60;;;;;20.50;1.00;;;;;;2268012;61;1178;-87
2022/08/10 05:19:16;187638.00;0.63;324.64;68144.00;0.23;118.55;;;;;20.80;1.00;;;;;;2265998;61;1919;-84
2022/08/10 05:21:44;260082.00;0.87;449.29;71396.00;0.24;124.17;;;;;20.90;1.00;;;;;;2265632;61;1088;-84
2022/08/10 05:24:11;276715.00;0.92;477.89;70438.00;0.23;122.52;;;;;21.30;1.00;;;;;;2264873;61;1278;-83
2022/08/10 05:26:38;306476.00;1.02;529.05;67060.00;0.22;116.68;;;;;21.10;1.00;;;;;;2265315;61;1196;-83
2022/08/10 05:29:05;260096.00;0.87;449.31;72010.00;0.24;125.23;;;;;21.30;1.00;;;;;;2265604;61;1142;-82
2022/08/10 05:31:32;316671.00;1.06;546.58;72182.00;0.24;125.53;;;;;21.30;1.00;;;;;;2265336;61;1106;-84
2022/08/10 05:33:59;166930.00;0.56;288.98;73005.00;0.24;126.95;;;;;21.40;1.00;;;;;;2265073;61;1167;-83
2022/08/10 05:36:28;500706.00;1.67;863.04;144683.00;0.48;250.64;;;;;21.40;1.00;;;;;;2265609;61;1438;-83
2022/08/10 05:38:56;403120.00;1.34;695.17;70680.00;0.24;122.94;;;;;21.60;1.00;;;;;;2265680;61;1092;-83
2022/08/10 05:41:23;335863.00;1.12;579.56;106806.00;0.36;185.32;;;;;22.60;1.00;;;;;;2265264;61;2001;-83
2022/08/10 05:43:51;498784.00;1.66;859.73;95197.00;0.32;165.28;;;;;24.30;1.00;;;;;;2265106;61;1134;-84
2022/08/10 05:46:18;177832.00;0.59;307.76;63668.00;0.21;110.82;;;;;25.60;1.00;;;;;;2265386;61;1363;-83
2022/08/10 05:48:45;185712.00;0.62;321.33;75027.00;0.25;130.45;;;;;27.00;1.00;;;;;;2264948;61;1132;-85
2022/08/10 05:51:12;189161.00;0.63;327.26;74726.00;0.25;129.93;;;;;28.50;1.00;;;;;;2265068;61;1195;-84
2022/08/10 05:53:41;268710.00;0.90;464.13;97464.00;0.32;169.19;;;;;28.80;1.00;;;;;;2264426;61;1187;-85
2022/08/10 05:56:09;211630.00;0.71;365.94;71181.00;0.24;123.80;;;;;29.90;1.00;;;;;;2264621;61;1510;-84
2022/08/10 05:58:36;426776.00;1.42;735.84;171806.00;0.57;297.38;;;;;30.10;1.00;;;;;;2264407;61;1157;-84
2022/08/10 06:01:07;163486.00;0.54;283.05;58526.00;0.20;101.93;;;;;30.40;1.00;;;;;;2264924;61;2026;-85
2022/08/10 06:03:39;88287.00;0.29;153.35;0.00;0.00;0.62;;;;;30.90;1.00;;;;;;2264707;61;1152;-82
2022/08/10 06:06:10;48780.00;0.16;85.08;0.00;0.00;0.62;;;;;31.60;1.00;;;;;;2263889;61;1468;-82
2022/08/10 06:08:41;0.00;0.00;0.62;0.00;0.00;0.62;;;;;32.40;1.00;;;;;;2264428;61;1182;-83
2022/08/10 06:11:13;61680.00;0.21;107.38;0.00;0.00;0.62;;;;;33.10;1.00;;;;;;2264244;61;1534;-83
2022/08/10 06:16:32;322839.00;1.08;557.18;142322.00;0.47;246.57;;;;;33.30;1.00;;;;;;2264471;61;660;-82
2022/08/10 06:19:00;0.00;0.00;0.62;0.00;0.00;0.62;;;;;33.60;1.00;;;;;;2264203;61;1100;-83
2022/08/10 06:21:27;0.00;0.00;0.62;0.00;0.00;0.62;;;;;33.60;1.00;;;;;;2264042;61;2047;-84
2022/08/10 06:24:01;0.00;0.00;0.62;0.00;0.00;0.62;;;;;33.60;1.00;;;;;;2265193;61;1140;-84
2022/08/10 06:26:28;0.00;0.00;0.62;0.00;0.00;0.62;;;;;34.20;1.00;;;;;;2264742;61;1490;-84
2022/08/10 06:28:59;0.00;0.00;0.62;0.00;0.00;0.62;;;;;33.70;1.00;;;;;;2266457;61;1170;-88
2022/08/10 06:31:28;9631.00;0.03;17.31;0.00;0.00;0.62;;;;;34.50;1.00;;;;;;2267954;61;1683;-85
2022/08/10 06:33:58;0.00;0.00;0.62;0.00;0.00;0.62;;;;;34.40;1.00;;;;;;2265511;61;1086;-84
2022/08/10 06:36:28;68877.00;0.23;119.82;0.00;0.00;0.62;;;;;34.90;1.00;;;;;;2265632;61;1534;-84
2022/08/10 06:38:57;0.00;0.00;0.62;0.00;0.00;0.62;;;;;35.20;1.00;;;;;;2264854;61;1144;-82
2022/08/10 06:41:31;276520.00;0.92;477.55;61087.00;0.20;106.36;;;;;35.20;1.00;;;;;;2265331;61;2003;-83
2022/08/10 06:44:03;0.00;0.00;0.62;0.00;0.00;0.62;;;;;35.10;1.00;;;;;;2267751;61;1751;-85
2022/08/10 06:46:34;122127.00;0.41;211.75;0.00;0.00;0.62;;;;;35.10;1.00;;;;;;2268686;61;1012;-86
2022/08/10 06:49:05;0.00;0.00;0.62;0.00;0.00;0.62;;;;;34.90;1.00;;;;;;2265800;61;1110;-81
2022/08/10 06:51:36;0.00;0.00;0.62;0.00;0.00;0.62;;;;;34.90;1.00;;;;;;2261835;61;1108;-83
2022/08/10 06:54:07;0.00;0.00;0.62;0.00;0.00;0.62;;;;;34.70;1.00;;;;;;2261373;61;1461;-81
2022/08/10 06:56:39;0.00;0.00;0.62;0.00;0.00;0.62;;;;;35.00;1.00;;;;;;2262021;61;1147;-81
2022/08/10 06:59:10;154350.00;0.51;267.30;31526.00;0.11;55.22;;;;;34.80;1.00;;;;;;2262578;61;1140;-82
2022/08/10 07:01:41;0.00;0.00;0.62;0.00;0.00;0.62;;;;;35.20;1.00;;;;;;2262604;61;2001;-82
2022/08/10 07:04:12;0.00;0.00;0.62;0.00;0.00;0.62;;;;;35.20;1.00;;;;;;2262338;61;1324;-82
2022/08/10 07:06:45;0.00;0.00;0.62;0.00;0.00;0.62;;;;;35.40;1.00;;;;;;2264865;61;1153;-85
2022/08/10 07:09:16;417478.00;1.39;719.85;189019.00;0.63;327.02;;;;;34.60;1.00;;;;;;2268657;61;1062;-84
2022/08/10 07:11:45;29542.00;0.10;51.79;0.00;0.00;0.62;;;;;34.30;1.00;;;;;;2262879;61;1062;-82
2022/08/10 07:14:14;0.00;0.00;0.62;0.00;0.00;0.62;;;;;35.10;1.00;;;;;;2261276;61;1301;-82
2022/08/10 07:16:42;0.00;0.00;0.62;0.00;0.00;0.62;;;;;35.30;1.00;;;;;;2261755;61;1175;-81
2022/08/10 07:19:11;0.00;0.00;0.62;0.00;0.00;0.62;;;;;35.40;1.00;;;;;;2261430;61;1643;-83
2022/08/10 07:21:41;0.00;0.00;0.62;0.00;0.00;0.62;;;;;35.00;1.00;;;;;;2261867;61;2017;-82
2022/08/10 07:24:11;16070.00;0.05;28.46;0.00;0.00;0.62;;;;;36.00;1.00;;;;;;2261547;61;1365;-82
2022/08/10 07:26:45;33538.00;0.11;58.71;0.00;0.00;0.62;;;;;36.20;1.00;;;;;;2261570;61;1338;-83
2022/08/10 07:29:15;0.00;0.00;0.62;0.00;0.00;0.62;;;;;36.60;1.00;;;;;;2261499;61;1129;-82
2022/08/10 07:31:43;0.00;0.00;0.62;0.00;0.00;0.62;;;;;37.00;1.00;;;;;;2261114;61;1017;-82
2022/08/10 07:34:14;178580.00;0.60;309.04;52407.00;0.17;91.35;;;;;36.70;1.00;;;;;;2261436;61;1350;-82
2022/08/10 07:36:44;0.00;0.00;0.62;0.00;0.00;0.62;;;;;36.10;1.00;;;;;;2261599;61;1086;-82
2022/08/10 07:39:13;7771.00;0.03;14.09;0.00;0.00;0.62;;;;;36.50;1.00;;;;;;2261543;61;1140;-83
2022/08/10 07:41:44;276147.00;0.92;476.91;88551.00;0.30;153.81;;;;;37.30;1.00;;;;;;2261030;61;1943;-82
2022/08/10 07:44:12;0.00;0.00;0.62;0.00;0.00;0.62;;;;;37.40;1.00;;;;;;2267440;61;1272;-83
2022/08/10 07:46:44;0.00;0.00;0.62;0.00;0.00;0.62;;;;;37.60;1.00;;;;;;2262019;61;2348;-83
2022/08/10 07:49:23;279193.00;0.93;482.15;128955.00;0.43;223.53;;;;;37.30;1.00;;;;;;2260869;61;1027;-83
2022/08/10 07:51:52;543510.00;1.81;936.77;221843.00;0.74;383.51;;;;;36.80;1.00;;;;;;2261507;61;1123;-83
2022/08/10 07:54:22;201213.00;0.67;348.01;56204.00;0.19;97.91;;;;;36.90;1.00;;;;;;2261514;61;1260;-83
2022/08/10 07:56:53;166398.00;0.55;288.06;58341.00;0.19;101.61;;;;;35.80;1.00;;;;;;2261331;61;1173;-82
2022/08/10 07:59:25;166544.00;0.56;288.31;47703.00;0.16;83.21;;;;;34.50;1.00;;;;;;2261722;61;1308;-82
2022/08/10 08:01:56;164565.00;0.55;284.90;59067.00;0.20;102.86;;;;;33.40;1.00;;;;;;2261604;61;2006;-82
2022/08/10 08:04:25;266957.00;0.89;461.11;87139.00;0.29;151.37;;;;;33.50;1.00;;;;;;2261430;61;1440;-83
2022/08/10 08:06:54;164911.00;0.55;285.50;60932.00;0.20;106.09;;;;;33.60;1.00;;;;;;2261409;61;1107;-83
2022/08/10 08:09:23;164803.00;0.55;285.31;54554.00;0.18;95.06;;;;;33.40;1.00;;;;;;2262036;61;1216;-82
2022/08/10 08:11:54;165485.00;0.55;286.49;56527.00;0.19;98.47;;;;;34.40;1.00;;;;;;2260885;61;1156;-82
2022/08/10 08:14:22;170296.00;0.57;294.78;70774.00;0.24;123.10;;;;;33.50;1.00;;;;;;2261222;61;1443;-83
2022/08/10 08:16:52;163184.00;0.54;282.52;58330.00;0.19;101.59;;;;;33.50;1.00;;;;;;2261207;61;1130;-82
2022/08/10 08:19:20;283533.00;0.95;489.61;104044.00;0.35;180.55;;;;;33.90;1.00;;;;;;2261598;61;1144;-84
2022/08/10 08:21:48;161132.00;0.54;278.99;54060.00;0.18;94.21;;;;;33.60;1.00;;;;;;2261504;61;2020;-83
2022/08/10 08:24:17;167227.00;0.56;289.49;62755.00;0.21;109.24;;;;;34.20;1.00;;;;;;2261145;61;1318;-83
2022/08/10 08:26:45;192639.00;0.64;333.25;54074.00;0.18;94.23;;;;;33.70;1.00;;;;;;2261195;61;1166;-82
2022/08/10 08:29:14;341551.00;1.14;589.34;107941.00;0.36;187.28;;;;;33.50;1.00;;;;;;2260713;61;1140;-82
2022/08/10 08:31:43;166600.00;0.56;288.41;61864.00;0.21;107.70;;;;;33.10;1.00;;;;;;2260351;61;1217;-83
2022/08/10 08:34:14;250849.00;0.84;433.41;59493.00;0.20;103.60;;;;;32.80;1.00;;;;;;2267171;61;1305;-83
2022/08/10 08:36:42;172063.00;0.57;297.82;64011.00;0.21;111.41;;;;;32.70;1.00;;;;;;2263967;61;1077;-83
2022/08/10 08:39:11;170141.00;0.57;294.51;67393.00;0.22;117.26;;;;;32.40;1.00;;;;;;2260810;61;1100;-83
2022/08/10 08:41:58;70833.00;0.24;123.20;0.00;0.00;0.62;;;;;32.10;1.00;;;;;;2256816;61;2006;-83
2022/08/10 08:44:42;172542.00;0.58;298.65;63040.00;0.21;109.73;;;;;32.30;1.00;;;;;;2256327;61;1344;-82
2022/08/10 08:47:30;323021.00;1.08;557.49;116975.00;0.39;202.86;;;;;31.80;1.00;;;;;;2257290;61;1094;-83
2022/08/10 08:50:13;169035.00;0.56;292.60;55895.00;0.19;97.38;;;;;31.40;1.00;;;;;;2258144;61;1127;-82
2022/08/10 08:52:53;173404.00;0.58;300.13;62170.00;0.21;108.23;;;;;31.70;1.00;;;;;;2259019;61;1177;-83
2022/08/10 08:55:31;223322.00;0.74;386.06;56563.00;0.19;98.53;;;;;31.50;1.00;;;;;;2257938;61;1660;-83
2022/08/10 08:58:13;165819.00;0.55;287.06;54084.00;0.18;94.25;;;;;31.10;1.00;;;;;;2262706;61;1110;-83
2022/08/10 09:00:49;222901.00;0.74;385.34;59921.00;0.20;104.34;;;;;31.40;1.00;;;;;;2260582;61;2024;-83
2022/08/10 09:03:52;120784.00;0.40;209.43;55544.00;0.19;96.77;;;;;31.20;1.00;;;;;;2258432;61;1699;-83
2022/08/10 09:07:02;353091.00;1.18;609.17;125050.00;0.42;216.79;;;;;31.00;1.00;;;;;;2258257;61;1533;-83
2022/08/10 09:09:56;74714.00;0.25;129.91;0.00;0.00;0.62;;;;;30.90;1.00;;;;;;2258199;61;1171;-83
2022/08/10 09:12:35;76273.00;0.25;132.60;0.00;0.00;0.62;;;;;31.00;1.00;;;;;;2258505;61;1188;-83
2022/08/10 09:15:08;88860.00;0.30;154.34;0.00;0.00;0.62;;;;;30.90;1.00;;;;;;2257971;61;1361;-81
2022/08/10 09:17:49;247087.00;0.82;426.94;0.00;0.00;0.62;;;;;30.90;1.00;;;;;;2259158;61;1175;-82
2022/08/10 09:20:23;519554.00;1.73;895.50;16086.00;0.05;28.49;;;;;30.60;1.00;;;;;;2259169;61;1110;-83
2022/08/10 09:22:57;569954.00;1.90;982.37;14930.00;0.05;26.49;;;;;30.70;1.00;;;;;;2257682;61;2083;-83
2022/08/10 09:25:32;862917.00;2.88;1491.08;62996.00;0.21;109.66;;;;;30.80;1.00;;;;;;2264791;61;1369;-83
2022/08/10 09:28:04;577362.00;1.92;995.15;73653.00;0.25;128.07;;;;;30.40;1.00;;;;;;2263818;61;1366;-82
2022/08/10 09:30:38;159452.00;0.53;276.10;0.00;0.00;0.62;;;;;30.40;1.00;;;;;;2264096;61;1097;-83
2022/08/10 09:33:12;35319.00;0.12;61.79;0.00;0.00;0.62;;;;;29.90;1.00;;;;;;2264992;61;1095;-84
2022/08/10 09:35:52;48937.00;0.16;85.35;0.00;0.00;0.62;;;;;29.50;1.00;;;;;;2261878;61;1352;-81
2022/08/10 09:38:28;343734.00;1.15;593.09;0.00;0.00;0.62;;;;;28.50;1.00;;;;;;2259145;61;1190;-81
2022/08/10 09:41:03;151873.00;0.51;263.04;0.00;0.00;0.62;;;;;28.50;1.00;;;;;;2258752;61;1995;-81
2022/08/10 09:43:49;107323.00;0.36;186.21;0.00;0.00;0.62;;;;;28.10;1.00;;;;;;2259282;61;1240;-82
2022/08/10 09:46:27;94453.00;0.31;164.00;707.00;0.00;1.85;;;;;28.00;1.00;;;;;;2258333;61;1547;-82
2022/08/10 09:49:03;161002.00;0.54;278.77;66399.00;0.22;115.54;;;;;28.10;1.00;;;;;;2258891;61;1075;-81
2022/08/10 09:51:36;227812.00;0.76;393.78;0.00;0.00;0.62;;;;;28.10;1.00;;;;;;2259655;61;1141;-82
2022/08/10 09:54:15;265229.00;0.88;458.14;0.00;0.00;0.62;;;;;28.00;1.00;;;;;;2259193;61;1266;-80
2022/08/10 09:56:56;77079.00;0.26;133.99;0.00;0.00;0.62;;;;;27.90;1.00;;;;;;2259173;61;1129;-81
2022/08/10 09:59:30;170409.00;0.57;294.97;64296.00;0.21;111.90;;;;;28.00;1.00;;;;;;2258679;61;1126;-82
2022/08/10 10:02:10;156739.00;0.52;271.42;48584.00;0.16;84.74;;;;;28.50;1.00;;;;;;2260240;61;1916;-81
2022/08/10 10:04:51;185773.00;0.62;321.43;68471.00;0.23;119.12;;;;;28.70;1.00;;;;;;2264891;61;1363;-82
2022/08/10 10:07:25;55252.00;0.18;96.27;0.00;0.00;0.62;;;;;29.00;1.00;;;;;;2264747;61;1149;-84
2022/08/10 10:10:01;452233.00;1.51;779.62;72549.00;0.24;126.16;;;;;29.20;1.00;;;;;;2264874;61;1035;-83
2022/08/10 10:12:42;293059.00;0.98;505.99;66916.00;0.22;116.43;;;;;28.90;1.00;;;;;;2264845;61;1102;-85
2022/08/10 10:15:20;5005.00;0.02;9.29;0.00;0.00;0.62;;;;;28.80;1.00;;;;;;2265827;61;1666;-84
2022/08/10 10:18:04;45942.00;0.15;80.17;0.00;0.00;0.62;;;;;29.00;1.00;;;;;;2268757;61;1223;-84
2022/08/10 10:20:40;175523.00;0.59;303.78;0.00;0.00;0.62;;;;;29.10;1.00;;;;;;2268109;61;1205;-82
2022/08/10 10:23:16;0.00;0.00;0.62;0.00;0.00;0.62;;;;;29.50;1.00;;;;;;2261145;61;2029;-82
2022/08/10 10:25:50;194940.00;0.65;337.21;0.00;0.00;0.62;;;;;29.50;1.00;;;;;;2261512;61;1470;-81